Flight Track Log - Related Links

Times and Time Zones

All times are in EDT time to prevent confusion due to time zone crossing. See the N836EA flight status page for this flight to view local times or setup timezone preferences in your user account.

Time Position Orientation Groundspeed Altitude Reporting Facility
EDT Latitude Longitude Course Direction KTS MPH feet Rate Location/Type
Fri 08:10:56 PM 32.2328 -86.4256 254° West 160 184 5,200  Level Atlanta Center
Fri 08:11:56 PM 32.2214 -86.4817 257° West 171 197 7,200 1,950 Climbing Atlanta Center
Fri 08:12:56 PM 32.2097 -86.5403 257° West 183 211 9,100 1,950 Climbing Atlanta Center
Fri 08:13:56 PM 32.1961 -86.5989 255° West 183 211 11,100 1,890 Climbing Atlanta Center
Fri 08:15:00 PM 32.1904 -86.8883 254° West  Level FlightAware Approximate
Fri 08:15:57 PM 32.1725 -86.7233 257° West 190 219 14,800  Level Atlanta Center
Fri 08:16:00 PM 32.1696 -86.9717 254° West  Level FlightAware Approximate
Fri 08:16:56 PM 32.1606 -86.7917 258° West 195 224 16,200  Level Atlanta Center
Fri 08:17:57 PM 32.1467 -86.8525 255° West 207 238 18,300 1,850 Climbing Atlanta Center
Fri 08:18:56 PM 32.1325 -86.9183 256° West 207 238 19,900 1,563 Climbing Atlanta Center
Fri 08:19:56 PM 32.1183 -86.9889 257° West 213 245 21,400 1,450 Climbing Atlanta Center
Fri 08:20:56 PM 32.1064 -87.0572 258° West 218 251 22,800 1,300 Climbing Atlanta Center
Fri 08:21:56 PM 32.0919 -87.1278 256° West 218 251 24,000 1,250 Climbing Atlanta Center
Fri 08:22:56 PM 32.0756 -87.2008 255° West 223 257 25,300 992 Climbing Atlanta Center
Fri 08:23:57 PM 32.0611 -87.2761 257° West 223 257 26,000 350 Climbing Atlanta Center
Fri 08:24:56 PM 32.0442 -87.3614 257° West 248 285 26,000  Level Atlanta Center
Fri 08:25:57 PM 32.0231 -87.4536 255° West 275 316 26,000  Level Atlanta Center
Fri 08:26:56 PM 32.0036 -87.5508 257° West 299 344 26,000  Level Atlanta Center
Fri 08:27:56 PM 31.9858 -87.6603 259° West 310 357 26,000  Level Atlanta Center
Fri 08:28:56 PM 31.9661 -87.7575 257° West 316 364 26,000  Level Atlanta Center
Fri 08:29:56 PM 31.9422 -87.8544 254° West 316 364 26,000  Level Atlanta Center
Fri 08:30:56 PM 31.9247 -87.9514 258° West 316 364 26,000  Level Atlanta Center
Fri 08:32:36 PM 31.8894 -88.1042 255° West 301 346 26,000  Level Memphis Center
Fri 08:33:36 PM 31.8683 -88.2047 256° West 306 352 26,000  Level Memphis Center
Fri 08:34:36 PM 31.8492 -88.3006 257° West 306 352 26,000  Level Memphis Center
Fri 08:35:36 PM 31.8256 -88.3989 254° West 306 352 26,000  Level Memphis Center
Fri 08:36:36 PM 31.8042 -88.4972 256° West 306 352 26,000  Level Memphis Center
Fri 08:37:36 PM 31.7847 -88.5953 257° West 306 352 26,000  Level Memphis Center
Fri 08:38:36 PM 31.7608 -88.6911 254° West 311 358 26,000  Level Memphis Center
Fri 08:39:36 PM 31.7392 -88.7892 255° West 311 358 26,000  Level Memphis Center
Fri 08:40:07 PM 31.7294 -88.8403 257° West 310 357 26,000  Level Houston Center
Fri 08:41:09 PM 31.7097 -88.9375 257° West 309 356 26,000  Level Houston Center
Fri 08:42:10 PM 31.6875 -89.0353 255° West 312 359 26,000  Level Houston Center
Fri 08:43:12 PM 31.6661 -89.1333 256° West 312 359 26,000  Level Houston Center
Fri 08:44:14 PM 31.6447 -89.2303 255° West 310 357 26,000  Level Houston Center
Fri 08:45:16 PM 31.6192 -89.3478 256° West 311 358 26,000  Level Houston Center
Fri 08:46:17 PM 31.5958 -89.4450 254° West 312 359 26,000  Level Houston Center
Fri 08:47:19 PM 31.5753 -89.5433 256° West 312 359 26,000  Level Houston Center
Fri 08:48:21 PM 31.5539 -89.6331 254° West 312 359 26,000  Level Houston Center
Fri 08:49:22 PM 31.5275 -89.7511 255° West 310 357 26,000  Level Houston Center
Fri 08:50:24 PM 31.5050 -89.8489 255° West 310 357 26,000  Level Houston Center
Fri 08:51:26 PM 31.4833 -89.9467 255° West 309 356 26,000  Level Houston Center
Fri 08:52:27 PM 31.4617 -90.0450 256° West 312 359 26,000  Level Houston Center
Fri 08:53:29 PM 31.4394 -90.1419 255° West 309 356 26,000  Level Houston Center
Fri 08:54:31 PM 31.4161 -90.2394 254° West 311 358 26,000  Level Houston Center
Fri 08:55:32 PM 31.3933 -90.3389 255° West 316 364 26,000  Level Houston Center
Fri 08:56:34 PM 31.3650 -90.4569 254° West 316 364 26,000  Level Houston Center
Fri 08:57:35 PM 31.3436 -90.5550 256° West 315 362 26,000  Level Houston Center
Fri 08:58:37 PM 31.3189 -90.6536 254° West 315 362 26,000  Level Houston Center
Fri 08:59:38 PM 31.2967 -90.7522 255° West 316 364 26,000  Level Houston Center
Fri 09:00:40 PM 31.2733 -90.8503 254° West 316 364 26,000  Level Houston Center
Fri 09:01:41 PM 31.2500 -90.9478 254° West 314 361 26,000  Level Houston Center
Fri 09:02:43 PM 31.2264 -91.0461 254° West 315 362 26,000  Level Houston Center
Fri 09:03:44 PM 31.2003 -91.1631 255° West 312 359 26,000  Level Houston Center
Fri 09:04:46 PM 31.1783 -91.2625 256° West 313 360 26,000  Level Houston Center
Fri 09:05:47 PM 31.1594 -91.3606 257° West 314 361 26,000  Level Houston Center
Fri 09:06:49 PM 31.1403 -91.4608 257° West 313 360 26,000  Level Houston Center
Fri 09:07:50 PM 31.1203 -91.5589 257° West 312 359 26,000  Level Houston Center
Fri 09:08:51 PM 31.1008 -91.6583 257° West 314 361 26,000  Level Houston Center
Fri 09:09:53 PM 31.0806 -91.7583 257° West 316 364 26,000  Level Houston Center
Fri 09:10:54 PM 31.0603 -91.8581 257° West 317 365 26,000  Level Houston Center
Fri 09:11:55 PM 31.0397 -91.9581 257° West 316 364 26,000  Level Houston Center
Fri 09:12:57 PM 31.0189 -92.0617 257° West 314 361 26,000  Level Houston Center
Fri 09:13:58 PM 30.9953 -92.1781 257° West 318 366 26,000  Level Houston Center
Fri 09:14:59 PM 30.9744 -92.2769 256° West 315 362 26,000  Level Houston Center
Fri 09:16:00 PM 30.9544 -92.3758 257° West 312 359 26,000  Level Houston Center
Fri 09:17:01 PM 30.9336 -92.4753 256° West 313 360 26,000  Level Houston Center
Fri 09:18:03 PM 30.9139 -92.5744 257° West 313 360 26,000  Level Houston Center
Fri 09:19:04 PM 30.8931 -92.6731 256° West 313 360 26,000  Level Houston Center
Fri 09:20:05 PM 30.8728 -92.7719 257° West 313 360 26,000  Level Houston Center
Fri 09:21:06 PM 30.8525 -92.8706 257° West 313 360 26,000  Level Houston Center
Fri 09:22:07 PM 30.8328 -92.9658 256° West 311 358 26,000  Level Houston Center
Fri 09:23:08 PM 30.8122 -93.0636 256° West 311 358 26,000  Level Houston Center
Fri 09:24:10 PM 30.7925 -93.1600 257° West 310 357 26,000  Level Houston Center
Fri 09:25:11 PM 30.7678 -93.2758 256° West 309 356 26,000  Level Houston Center
Fri 09:26:12 PM 30.7472 -93.3725 256° West 310 357 26,000  Level Houston Center
Fri 09:27:13 PM 30.7269 -93.4703 256° West 313 360 26,000 -98 Level Houston Center
Fri 09:28:14 PM 30.7067 -93.5647 256° West 309 356 25,800 -934 Descending Houston Center
Fri 09:29:15 PM 30.6867 -93.6581 256° West 303 349 24,100 -1,770 Descending Houston Center
Fri 09:30:16 PM 30.6642 -93.7564 255° West 312 359 22,200 -1,902 Descending Houston Center
Fri 09:31:18 PM 30.6428 -93.8564 256° West 320 368 20,200 -1,967 Descending Houston Center
Fri 09:32:18 PM 30.6219 -93.9539 256° West 315 362 18,200 -1,983 Descending Houston Center
Fri 09:33:19 PM 30.6000 -94.0497 255° West 311 358 16,200 -2,098 Descending Houston Center
Fri 09:34:21 PM 30.5758 -94.1631 256° West 303 349 13,900 -2,098 Descending Houston Center
Fri 09:35:22 PM 30.5550 -94.2550 255° West 296 341 11,900 -1,918 Descending Houston Center
Fri 09:36:23 PM 30.5336 -94.3453 255° West 292 336 10,000 -934 Descending Houston Center
Fri 09:37:24 PM 30.5158 -94.4261 256° West 261 300 10,000  Level Houston Center
Fri 09:38:25 PM 30.4983 -94.4983 254° West 237 273 10,000  Level Houston Center
Fri 09:39:26 PM 30.4792 -94.5808 255° West 233 268 10,000  Level Houston Center
Fri 09:40:27 PM 30.4631 -94.6508 255° West 226 260 10,000  Level Houston Center
Fri 09:41:28 PM 30.4447 -94.7239 254° West 234 269 10,000  Level Houston Center
Fri 09:42:29 PM 30.4278 -94.7992 255° West 237 273 10,000 -344 Level Houston Center
Fri 09:43:30 PM 30.4097 -94.8744 254° West 241 277 9,300 -836 Descending Houston Center
Fri 09:44:31 PM 30.3911 -94.9558 255° West 256 295 8,300 -984 Descending Houston Center
Fri 09:45:32 PM 30.3708 -95.0389 254° West 265 305 7,300 -984 Descending Houston Center
Fri 09:46:33 PM 30.3519 -95.1186 255° West 261 300 6,300 -1,032 Descending Houston Center
Fri 09:47:05 PM 30.3403 -95.1669 254° West 255 293 5,700 -1,037 Descending Houston Center
Fri 09:47:54 PM 30.3250 -95.2294 254° West 254 292 4,900 -867 Descending Houston Center
Fri 09:48:35 PM 30.3142 -95.2747 255° West 253 291 4,400 -1,000 Descending Houston Center
Fri 09:49:06 PM 30.3022 -95.3242 254° West 245 282 3,700 -984 Descending Houston Center
Fri 09:49:36 PM 30.2969 -95.3486 256° West 244 281 3,400 -857 Descending Houston Center
Fri 09:50:37 PM 30.2800 -95.4200 255° West 235 270 2,400 -689 Descending Houston Center
Fri 09:51:38 PM 30.2631 -95.4894 254° West 229 264 2,000 -148 Descending Houston Center
Fri 09:52:39 PM 30.2561 -95.5522 263° West 211 243 2,100  Climbing Houston Center
Fri 09:53:40 PM 30.2094 -95.5753 203° Southwest 177 204 2,000 -49 Descending Houston Center
Fri 09:54:41 PM 30.1678 -95.5689 172° South 161 185 2,000 -295 Level Houston Center
Fri 09:55:42 PM 30.1375 -95.5647 173° South 132 152 1,400 -492 Descending Houston Center
Fri 09:56:43 PM 30.1144 -95.5614 173° South 100 115 1,000 -295 Descending Houston Center
Fri 09:57:44 PM 30.0914 -95.5561 169° South 96 110 800 -197 Descending Houston Center
Fri 09:59:00 PM 30.0618 -95.5528 208° Southwest  Level Estimated

Login

Don't have an account? Register now (free) for customized features, flight alerts, and more!